createdAt,value
2023-01-08T00:00:35.824Z,83.74
2023-01-08T00:15:36.102Z,83.28
2023-01-08T00:30:36.495Z,83.45
2023-01-08T00:45:36.907Z,81.26
2023-01-08T01:00:37.635Z,81.93
2023-01-08T01:15:38.329Z,81.96
2023-01-08T01:30:39.001Z,82.38
2023-01-08T01:45:39.655Z,82.42
2023-01-08T02:00:40.330Z,82.48
2023-01-08T02:15:41.076Z,80.65
2023-01-08T02:30:41.645Z,82.00
2023-01-08T02:45:42.368Z,80.79
2023-01-08T03:00:42.609Z,81.31
2023-01-08T03:15:43.054Z,81.76
2023-01-08T03:30:43.685Z,82.18
2023-01-08T03:45:44.069Z,82.25
2023-01-08T04:00:44.823Z,81.76
2023-01-08T04:15:45.626Z,81.03
2023-01-08T04:30:46.093Z,82.50
2023-01-08T04:45:54.177Z,82.46
2023-01-08T05:00:47.561Z,79.91
2023-01-08T05:15:48.005Z,79.74
2023-01-08T05:30:48.357Z,80.93
2023-01-08T05:45:48.946Z,82.01
2023-01-08T06:00:49.462Z,81.97
2023-01-08T06:15:50.000Z,82.14
2023-01-08T06:30:50.330Z,83.50
2023-01-08T06:45:50.983Z,82.53
2023-01-08T07:00:51.458Z,82.90
2023-01-08T07:15:52.200Z,83.53
2023-01-08T07:30:53.040Z,83.66
2023-01-08T07:45:53.304Z,84.04
2023-01-08T08:00:53.970Z,82.30
2023-01-08T08:15:54.650Z,81.35
2023-01-08T08:30:55.491Z,79.27
2023-01-08T08:45:55.882Z,77.05
2023-01-08T09:00:56.281Z,73.64
2023-01-08T09:15:56.828Z,73.91
2023-01-08T09:30:57.405Z,72.61
2023-01-08T09:45:58.096Z,72.37
2023-01-08T10:00:58.522Z,70.70
2023-01-08T10:15:59.213Z,63.79
2023-01-08T10:30:59.873Z,59.30
2023-01-08T10:46:00.445Z,57.37
2023-01-08T11:01:07.156Z,61.95
2023-01-08T11:16:01.819Z,65.37
2023-01-08T11:31:01.697Z,65.86
2023-01-08T11:46:02.341Z,64.95
2023-01-08T12:01:02.770Z,65.15
2023-01-08T12:16:03.503Z,64.98
2023-01-08T12:31:04.134Z,66.10
2023-01-08T12:46:04.721Z,66.16
2023-01-08T13:01:05.431Z,68.89
2023-01-08T13:16:05.927Z,70.87
2023-01-08T13:31:06.326Z,70.70
2023-01-08T13:46:08.976Z,72.38
2023-01-08T14:01:07.559Z,73.74
2023-01-08T14:16:08.079Z,73.36
2023-01-08T14:31:08.551Z,74.15
2023-01-08T14:46:09.260Z,74.46
2023-01-08T15:01:09.901Z,74.19
2023-01-08T15:16:10.525Z,75.67
2023-01-08T15:31:10.937Z,78.06
2023-01-08T15:46:11.794Z,78.61
2023-01-08T16:01:12.319Z,78.75
2023-01-08T16:16:12.882Z,77.76
2023-01-08T16:31:13.483Z,80.37
2023-01-08T16:46:14.075Z,79.90
2023-01-08T17:01:14.963Z,80.79
2023-01-08T17:16:15.591Z,80.83
2023-01-08T17:31:16.217Z,80.60
2023-01-08T17:46:16.505Z,81.77
2023-01-08T18:01:17.057Z,83.56
2023-01-08T18:16:17.519Z,84.19
2023-01-08T18:31:17.989Z,82.32
2023-01-08T18:46:18.361Z,81.56
2023-01-08T19:01:18.953Z,78.53
2023-01-08T19:16:19.278Z,78.53
2023-01-08T19:31:19.695Z,78.77
2023-01-08T19:46:20.047Z,78.01
2023-01-08T20:01:20.547Z,78.63
2023-01-08T20:16:21.142Z,78.84
2023-01-08T20:31:21.742Z,78.98
2023-01-08T20:46:22.181Z,78.77
2023-01-08T21:01:23.008Z,78.77
2023-01-08T21:16:23.610Z,78.98
2023-01-08T21:31:24.157Z,79.19
2023-01-08T21:46:24.761Z,79.15
2023-01-08T22:01:25.399Z,79.19
2023-01-08T22:16:25.753Z,78.77
2023-01-08T22:31:26.427Z,79.39
2023-01-08T22:46:26.763Z,79.63
